createdAt,value
2022-12-29T00:02:45.524Z,14.70
2022-12-29T00:07:49.854Z,14.80
2022-12-29T00:13:10.459Z,14.70
2022-12-29T00:18:13.324Z,14.70
2022-12-29T00:23:35.747Z,14.80
2022-12-29T00:28:56.075Z,14.80
2022-12-29T00:34:16.515Z,14.80
2022-12-29T00:39:39.033Z,14.80
2022-12-29T00:44:41.929Z,14.70
2022-12-29T00:49:46.317Z,14.70
2022-12-29T00:54:50.786Z,14.70
2022-12-29T00:59:53.685Z,14.70
2022-12-29T01:04:56.844Z,14.70
2022-12-29T01:10:13.352Z,14.70
2022-12-29T01:15:17.174Z,14.60
2022-12-29T01:20:21.322Z,14.50
2022-12-29T01:25:25.818Z,14.60
2022-12-29T01:30:28.766Z,14.60
2022-12-29T01:35:32.019Z,14.60
2022-12-29T01:40:36.248Z,14.60
2022-12-29T01:45:39.221Z,14.60
2022-12-29T01:50:45.782Z,14.60
2022-12-29T01:55:53.779Z,14.50
2022-12-29T02:00:56.843Z,14.50
2022-12-29T02:06:05.453Z,14.40
2022-12-29T02:11:10.012Z,14.50
2022-12-29T02:16:25.785Z,14.50
2022-12-29T02:22:00.780Z,14.50
2022-12-29T02:27:41.606Z,14.50
2022-12-29T02:32:55.332Z,14.50
2022-12-29T02:38:07.514Z,14.50
2022-12-29T02:43:23.930Z,14.50
2022-12-29T02:48:34.082Z,14.40
2022-12-29T02:53:56.305Z,14.50
2022-12-29T02:58:59.323Z,14.50
2022-12-29T03:04:32.950Z,14.50
2022-12-29T03:09:45.502Z,14.40
2022-12-29T03:15:17.458Z,14.50
2022-12-29T03:20:27.618Z,14.50
2022-12-29T03:25:34.309Z,14.50
2022-12-29T03:30:41.538Z,14.50
2022-12-29T03:35:49.455Z,14.60
2022-12-29T03:40:57.719Z,14.50
2022-12-29T03:46:02.366Z,14.50
2022-12-29T03:51:07.047Z,14.50
2022-12-29T03:56:10.760Z,14.40
2022-12-29T04:01:14.346Z,14.40
2022-12-29T04:06:18.799Z,14.50
2022-12-29T04:11:33.253Z,14.40
2022-12-29T04:16:39.837Z,14.30
2022-12-29T04:21:44.990Z,14.40
2022-12-29T04:26:47.973Z,14.40
2022-12-29T04:32:11.138Z,14.20
2022-12-29T04:37:21.328Z,14.20
2022-12-29T04:42:24.756Z,14.10
2022-12-29T04:47:28.460Z,14.10
2022-12-29T04:52:52.630Z,14.20
2022-12-29T04:57:55.589Z,14.10
2022-12-29T05:02:58.865Z,14.20
2022-12-29T05:08:03.825Z,14.30
2022-12-29T05:13:07.309Z,14.30
2022-12-29T05:18:10.892Z,14.40
2022-12-29T05:23:15.371Z,14.40
2022-12-29T05:28:18.926Z,14.40
2022-12-29T05:33:26.316Z,14.40
2022-12-29T05:38:37.534Z,14.40
2022-12-29T05:43:40.491Z,14.30
2022-12-29T05:48:56.832Z,14.30
2022-12-29T05:54:13.003Z,14.40
2022-12-29T05:59:17.969Z,14.40
2022-12-29T06:04:21.001Z,14.30
2022-12-29T06:09:25.790Z,14.30
2022-12-29T06:14:30.241Z,14.40
2022-12-29T06:19:35.101Z,14.30
2022-12-29T06:24:39.840Z,14.40
2022-12-29T06:29:43.877Z,14.40
2022-12-29T06:34:46.828Z,14.50
2022-12-29T06:39:51.238Z,14.30
2022-12-29T06:44:54.263Z,14.40
2022-12-29T06:49:57.206Z,14.40
2022-12-29T06:55:01.502Z,14.50
2022-12-29T07:00:05.790Z,14.40
2022-12-29T07:05:10.380Z,14.40
2022-12-29T07:10:14.691Z,14.50
2022-12-29T07:15:17.783Z,14.50
2022-12-29T07:20:26.261Z,14.50
2022-12-29T07:25:31.435Z,14.60
2022-12-29T07:30:34.553Z,14.50
2022-12-29T07:35:37.466Z,14.60
2022-12-29T07:40:41.802Z,14.60
2022-12-29T07:45:44.830Z,14.70
2022-12-29T07:50:47.732Z,14.70
2022-12-29T07:55:52.000Z,14.70
2022-12-29T08:00:56.012Z,14.70
2022-12-29T08:05:59.033Z,14.80
2022-12-29T08:11:03.346Z,14.80
2022-12-29T08:16:07.015Z,14.90
2022-12-29T08:21:11.032Z,14.90
2022-12-29T08:26:15.305Z,14.90
2022-12-29T08:31:18.194Z,14.90
2022-12-29T08:36:21.213Z,14.90
2022-12-29T08:41:25.531Z,14.90
2022-12-29T08:46:28.587Z,14.90
2022-12-29T08:51:31.532Z,14.90
2022-12-29T08:56:35.882Z,14.90
2022-12-29T09:01:41.550Z,14.80
2022-12-29T09:06:45.591Z,14.80
2022-12-29T09:11:49.958Z,14.80
2022-12-29T09:17:10.588Z,14.80
2022-12-29T09:22:14.536Z,14.90
2022-12-29T09:27:18.799Z,14.80
2022-12-29T09:32:23.548Z,14.80
2022-12-29T09:37:26.940Z,14.80
2022-12-29T09:42:39.929Z,14.90
2022-12-29T09:47:44.669Z,14.90
2022-12-29T09:52:51.807Z,14.80
2022-12-29T09:58:00.973Z,14.70
2022-12-29T10:03:16.676Z,14.70
2022-12-29T10:08:32.116Z,14.70
2022-12-29T10:13:53.295Z,14.70
2022-12-29T10:19:35.245Z,14.60
2022-12-29T10:24:41.710Z,14.70
2022-12-29T10:29:51.243Z,14.80
2022-12-29T10:34:59.284Z,14.90
2022-12-29T10:40:13.367Z,14.90
2022-12-29T10:45:25.908Z,14.90
2022-12-29T10:50:30.959Z,14.90
2022-12-29T10:55:37.291Z,14.70
2022-12-29T11:00:41.915Z,14.50
2022-12-29T11:05:52.353Z,14.40
2022-12-29T11:11:03.485Z,14.40
2022-12-29T11:16:08.223Z,14.20
2022-12-29T11:21:34.114Z,14.20
2022-12-29T11:26:37.012Z,14.20
2022-12-29T11:31:44.956Z,14.10
2022-12-29T11:36:48.591Z,14.30
2022-12-29T11:41:54.732Z,14.30
2022-12-29T11:46:58.990Z,14.40
2022-12-29T11:52:02.586Z,14.50
2022-12-29T11:57:13.835Z,14.40
2022-12-29T12:02:46.166Z,14.50
2022-12-29T12:07:59.007Z,14.60
2022-12-29T12:13:16.457Z,14.50
2022-12-29T12:18:30.926Z,14.60
2022-12-29T12:23:45.555Z,14.70
2022-12-29T12:28:54.898Z,14.60
2022-12-29T12:34:04.754Z,14.60
2022-12-29T12:39:13.561Z,14.60
2022-12-29T12:44:23.539Z,14.70
2022-12-29T12:50:02.830Z,14.70
2022-12-29T12:55:25.394Z,14.60
2022-12-29T13:00:33.303Z,14.60
2022-12-29T13:06:06.214Z,14.60
2022-12-29T13:11:20.062Z,14.70
2022-12-29T13:16:33.696Z,14.60
2022-12-29T13:22:05.990Z,14.70
2022-12-29T13:27:18.205Z,14.80
2022-12-29T13:32:31.232Z,14.70
2022-12-29T13:37:42.363Z,14.80
2022-12-29T13:42:46.165Z,14.80
2022-12-29T13:47:55.609Z,14.90
2022-12-29T13:53:05.992Z,14.90
2022-12-29T13:58:15.494Z,15.00
2022-12-29T14:03:46.558Z,14.80
2022-12-29T14:08:54.178Z,14.80
2022-12-29T14:13:57.741Z,14.90
2022-12-29T14:19:12.080Z,14.90
2022-12-29T14:24:46.543Z,14.80
2022-12-29T14:29:51.839Z,14.90
2022-12-29T14:34:56.475Z,14.80
2022-12-29T14:40:16.180Z,14.80
2022-12-29T14:45:29.987Z,14.70
2022-12-29T14:50:41.384Z,14.20
2022-12-29T14:55:48.340Z,13.40
2022-12-29T15:00:53.451Z,13.30
2022-12-29T15:06:10.020Z,13.30
2022-12-29T15:11:20.117Z,13.50
2022-12-29T15:16:25.692Z,13.50
2022-12-29T15:21:31.475Z,13.70
2022-12-29T15:26:41.823Z,13.70
2022-12-29T15:31:50.180Z,13.70
2022-12-29T15:36:53.505Z,13.70
2022-12-29T15:42:01.928Z,13.60
2022-12-29T15:47:06.127Z,13.60
2022-12-29T15:52:20.892Z,13.50
2022-12-29T15:57:27.281Z,13.50
2022-12-29T16:02:31.529Z,13.40
2022-12-29T16:07:41.651Z,13.40
2022-12-29T16:12:46.754Z,13.40
2022-12-29T16:17:52.645Z,13.40
2022-12-29T16:22:57.909Z,13.40
2022-12-29T16:28:03.755Z,13.50
2022-12-29T16:33:45.725Z,13.50
2022-12-29T16:38:48.962Z,13.50
2022-12-29T16:44:23.050Z,13.50
2022-12-29T16:49:26.780Z,13.40
2022-12-29T16:54:34.215Z,13.40
2022-12-29T16:59:43.441Z,13.40
2022-12-29T17:04:50.844Z,13.40
2022-12-29T17:09:56.258Z,13.30
2022-12-29T17:15:06.076Z,13.30
2022-12-29T17:20:18.644Z,13.30
2022-12-29T17:25:24.836Z,13.30
2022-12-29T17:30:34.058Z,13.20
2022-12-29T17:35:37.385Z,13.20
2022-12-29T17:40:40.434Z,12.80
2022-12-29T17:45:48.529Z,12.90
2022-12-29T17:50:53.948Z,13.00
2022-12-29T17:55:59.211Z,13.10
2022-12-29T18:01:06.243Z,13.10
2022-12-29T18:06:12.230Z,13.10
2022-12-29T18:11:24.008Z,13.10
2022-12-29T18:16:37.487Z,12.90
2022-12-29T18:21:42.101Z,12.90
2022-12-29T18:26:44.962Z,12.70
2022-12-29T18:31:49.299Z,12.70
2022-12-29T18:36:53.099Z,12.70
2022-12-29T18:41:56.111Z,12.70
2022-12-29T18:47:01.296Z,12.50
2022-12-29T18:52:04.344Z,12.50
2022-12-29T18:57:18.062Z,12.50
2022-12-29T19:02:32.754Z,12.50
2022-12-29T19:07:35.669Z,12.30
2022-12-29T19:12:38.687Z,12.40
2022-12-29T19:18:08.300Z,12.20
2022-12-29T19:23:13.706Z,12.20
2022-12-29T19:28:19.481Z,12.20
2022-12-29T19:33:24.135Z,12.00
2022-12-29T19:38:27.416Z,12.00
2022-12-29T19:43:30.717Z,12.10
2022-12-29T19:48:50.516Z,12.10
2022-12-29T19:53:55.535Z,12.10
2022-12-29T19:58:58.587Z,12.20
2022-12-29T20:04:04.290Z,12.20
2022-12-29T20:09:09.530Z,12.20
2022-12-29T20:14:12.767Z,12.10
2022-12-29T20:19:38.426Z,12.20
2022-12-29T20:24:46.748Z,11.90
2022-12-29T20:29:52.778Z,11.90
2022-12-29T20:34:57.488Z,11.70
2022-12-29T20:40:00.742Z,11.80
2022-12-29T20:45:05.622Z,11.90
2022-12-29T20:50:10.359Z,11.70
2022-12-29T20:55:14.976Z,11.80
2022-12-29T21:00:22.543Z,11.70
2022-12-29T21:05:39.934Z,11.60
2022-12-29T21:10:47.414Z,11.60
2022-12-29T21:16:03.848Z,11.30
2022-12-29T21:21:10.312Z,11.40
2022-12-29T21:26:17.316Z,11.40
2022-12-29T21:31:27.294Z,11.70
2022-12-29T21:36:32.883Z,11.60
2022-12-29T21:41:36.054Z,11.60
2022-12-29T21:46:41.227Z,11.50
2022-12-29T21:51:51.632Z,11.60
2022-12-29T21:56:54.736Z,11.60
2022-12-29T22:02:15.532Z,11.60
2022-12-29T22:07:37.521Z,11.60
2022-12-29T22:12:59.043Z,11.70
2022-12-29T22:18:03.052Z,11.70
2022-12-29T22:23:07.334Z,11.80
2022-12-29T22:28:10.258Z,11.80
2022-12-29T22:33:13.182Z,11.90
2022-12-29T22:38:17.411Z,11.90
2022-12-29T22:43:20.491Z,11.90
2022-12-29T22:48:23.620Z,11.70
2022-12-29T22:53:28.001Z,11.70
2022-12-29T22:58:31.027Z,11.80
2022-12-29T23:03:34.066Z,11.80
2022-12-29T23:08:40.133Z,11.90
2022-12-29T23:13:44.988Z,11.90
2022-12-29T23:18:49.794Z,11.60
2022-12-29T23:23:57.531Z,11.60
2022-12-29T23:29:01.987Z,11.60
2022-12-29T23:34:06.465Z,11.70
2022-12-29T23:39:11.712Z,11.70
2022-12-29T23:44:14.653Z,11.60
2022-12-29T23:49:17.716Z,11.50
2022-12-29T23:54:22.049Z,11.40
2022-12-29T23:59:25.831Z,11.50
